Home > Products > Valid Products > TAF

000
FTUS42 KMFL 012340
TAFFLL
TAF
KFLL 012340Z 0200/0224 28005KT P6SM VCTS SCT030CB BKN120
     FM020200 VRB03KT P6SM SCT250
     FM021500 32005KT P6SM SCT035 SCT250
     FM021900 07007KT P6SM VCTS SCT035CB=



000
FTUS42 KMFL 012340
TAFAPF
TAF
KAPF 012340Z 0200/0224 28007KT P6SM VCSH SCT030 BKN120
     FM020200 VRB03KT P6SM SCT250
     FM021700 27006KT P6SM SCT035 SCT250=



000
FTUS42 KMFL 012340
TAFFLL
TAF
KFLL 012340Z 0200/0224 28005KT P6SM VCTS SCT030CB BKN120
     FM020200 VRB03KT P6SM SCT250
     FM021500 32005KT P6SM SCT035 SCT250
     FM021900 07007KT P6SM VCTS SCT035CB=



000
FTUS42 KMFL 012340
TAFMIA
TAF
KMIA 012340Z 0200/0224 30005KT P6SM VCTS SCT030CB BKN120
     FM020200 VRB03KT P6SM SCT250
     FM021500 29005KT P6SM SCT035 SCT250
     FM022000 06006KT P6SM VCTS SCT035CB=



000
FTUS42 KMFL 012340
TAFMIA
TAF
KMIA 012340Z 0200/0224 30005KT P6SM VCTS SCT030CB BKN120
     FM020200 VRB03KT P6SM SCT250
     FM021500 29005KT P6SM SCT035 SCT250
     FM022000 06006KT P6SM VCTS SCT035CB=



000
FTUS42 KMFL 012340
TAFPBI
TAF
KPBI 012340Z 0200/0224 28005KT P6SM VCSH SCT030 BKN120
     FM020200 VRB03KT P6SM SCT250
     FM021500 31007KT P6SM SCT035 SCT250
     FM021900 07008KT P6SM VCTS SCT035CB=



000
FTUS42 KMFL 012340
TAFAPF
TAF
KAPF 012340Z 0200/0224 28007KT P6SM VCSH SCT030 BKN120
     FM020200 VRB03KT P6SM SCT250
     FM021700 27006KT P6SM SCT035 SCT250=



000
FTUS42 KMFL 012340
TAFPBI
TAF
KPBI 012340Z 0200/0224 28005KT P6SM VCSH SCT030 BKN120
     FM020200 VRB03KT P6SM SCT250
     FM021500 31007KT P6SM SCT035 SCT250
     FM021900 07008KT P6SM VCTS SCT035CB=



000
FTUS42 KMFL 012258 AAB
TAFMIA
TAF AMD
KMIA 012258Z 0123/0218 24007KT P6SM TSRA BKN035CB
     FM012330 VRB03KT P6SM SCT250
     FM021500 29005KT P6SM SCT035 SCT250=



000
FTUS42 KMFL 012258 AAB
TAFMIA
TAF AMD
KMIA 012258Z 0123/0218 24007KT P6SM TSRA BKN035CB
     FM012330 VRB03KT P6SM SCT250
     FM021500 29005KT P6SM SCT035 SCT250=



000
FTUS42 KMFL 012126 AAE
TAFPBI
TAF AMD
KPBI 012126Z 0121/0218 26009KT P6SM VCTS SCT030CB BKN120
     FM012300 25005KT P6SM VCSH SCT030 BKN120
     FM020200 VRB03KT P6SM SCT250
     FM021500 32007KT P6SM SCT035 SCT250=



000
FTUS42 KMFL 012126 AAE
TAFPBI
TAF AMD
KPBI 012126Z 0121/0218 26009KT P6SM VCTS SCT030CB BKN120
     FM012300 25005KT P6SM VCSH SCT030 BKN120
     FM020200 VRB03KT P6SM SCT250
     FM021500 32007KT P6SM SCT035 SCT250=



000
FTUS42 KMFL 012123 AAA
TAFAPF
TAF AMD
KAPF 012123Z 0121/0218 30008KT P6SM VCSH SCT030
     FM020200 VRB03KT P6SM SCT250
     FM021500 26007KT P6SM SCT035 SCT250=



000
FTUS42 KMFL 012123 AAA
TAFAPF
TAF AMD
KAPF 012123Z 0121/0218 30008KT P6SM VCSH SCT030
     FM020200 VRB03KT P6SM SCT250
     FM021500 26007KT P6SM SCT035 SCT250=



000
FTUS42 KMFL 012120 AAA
TAFMIA
TAF AMD
KMIA 012120Z 0121/0218 24007KT P6SM VCSH FEW040 SCT250
     FM020200 VRB03KT P6SM SCT250
     FM021500 29005KT P6SM SCT035 SCT250=



000
FTUS42 KMFL 012120 AAA
TAFMIA
TAF AMD
KMIA 012120Z 0121/0218 24007KT P6SM VCSH FEW040 SCT250
     FM020200 VRB03KT P6SM SCT250
     FM021500 29005KT P6SM SCT035 SCT250=



000
FTUS42 KMFL 012118 AAA
TAFFLL
TAF AMD
KFLL 012118Z 0121/0218 26005KT P6SM VCSH SCT030 BKN250
     FM020200 VRB03KT P6SM SCT250
     FM021500 30007KT P6SM SCT035 SCT250=



000
FTUS42 KMFL 012118 AAA
TAFFLL
TAF AMD
KFLL 012118Z 0121/0218 26005KT P6SM VCSH SCT030 BKN250
     FM020200 VRB03KT P6SM SCT250
     FM021500 30007KT P6SM SCT035 SCT250=



000
FTUS42 KMFL 012112 AAD
TAFPBI
TAF AMD
KPBI 012112Z 0121/0218 26007KT P6SM VCSH SCT030 BKN120
     FM020200 VRB03KT P6SM SCT250
     FM021500 32007KT P6SM SCT035 SCT250=



000
FTUS42 KMFL 012112 AAD
TAFPBI
TAF AMD
KPBI 012112Z 0121/0218 26007KT P6SM VCSH SCT030 BKN120
     FM020200 VRB03KT P6SM SCT250
     FM021500 32007KT P6SM SCT035 SCT250=



000
FTUS42 KMFL 011743 AAC
TAFPBI
TAF AMD
KPBI 011743Z 0118/0218 24030KT P6SM -RA VCTS SCT030CB BKN045 BKN070
     FM011900 23003KT P6SM VCTS SCT030CB BKN045 BKN070
     FM020000 23003KT P6SM BKN250
     FM020600 27005KT P6SM SCT250=



000
FTUS42 KMFL 011743 AAC
TAFPBI
TAF AMD
KPBI 011743Z 0118/0218 24030KT P6SM -RA VCTS SCT030CB BKN045 BKN070
     FM011900 23003KT P6SM VCTS SCT030CB BKN045 BKN070
     FM020000 23003KT P6SM BKN250
     FM020600 27005KT P6SM SCT250=



000
FTUS42 KMFL 011740 AAB
TAFPBI
TAF AMD
KPBI 011740Z 0118/0218 24030KT P6SM -RA VCTS SCT030CB BKN045 BKN070
     FM012100 23003KT P6SM VCTS SCT030CB BKN045 BKN070
     FM020000 23003KT P6SM BKN250
     FM020600 27005KT P6SM SCT250=



000
FTUS42 KMFL 011740 AAB
TAFPBI
TAF AMD
KPBI 011740Z 0118/0218 24030KT P6SM -RA VCTS SCT030CB BKN045 BKN070
     FM012100 23003KT P6SM VCTS SCT030CB BKN045 BKN070
     FM020000 23003KT P6SM BKN250
     FM020600 27005KT P6SM SCT250=



000
FTUS42 KMFL 011734 AAA
TAFPBI
TAF AMD
KPBI 011734Z 0118/0218 00000KT P6SM -RA VCTS SCT030CB BKN045 BKN070
     FM020000 23003KT P6SM BKN250
     FM020600 27005KT P6SM SCT250=



000
FTUS42 KMFL 011734 AAA
TAFPBI
TAF AMD
KPBI 011734Z 0118/0218 00000KT P6SM -RA VCTS SCT030CB BKN045 BKN070
     FM020000 23003KT P6SM BKN250
     FM020600 27005KT P6SM SCT250=



000
FTUS42 KMFL 011733
TAFFLL
TAF
KFLL 011733Z 0118/0218 25007KT P6SM VCTS FEW030CB SCT080 BKN120
     FM012300 24005KT P6SM FEW030 SCT080 BKN120
     FM020000 23003KT P6SM BKN250
     FM020600 27005KT P6SM SCT250=



000
FTUS42 KMFL 011733
TAFPBI
TAF
KPBI 011733Z 0118/0218 24005KT P6SM VCTS FEW030CB SCT080 BKN120
     FM020000 23003KT P6SM BKN250
     FM020600 27005KT P6SM SCT250=



000
FTUS42 KMFL 011733
TAFMIA
TAF
KMIA 011733Z 0118/0218 23008KT P6SM VCTS FEW030CB SCT080
     FM012300 24005KT P6SM FEW030 SCT080 BKN120
     FM020000 23003KT P6SM BKN250
     FM020600 26005KT P6SM SCT250=



000
FTUS42 KMFL 011733
TAFFLL
TAF
KFLL 011733Z 0118/0218 25007KT P6SM VCTS FEW030CB SCT080 BKN120
     FM012300 24005KT P6SM FEW030 SCT080 BKN120
     FM020000 23003KT P6SM BKN250
     FM020600 27005KT P6SM SCT250=



000
FTUS42 KMFL 011733
TAFPBI
TAF
KPBI 011733Z 0118/0218 24005KT P6SM VCTS FEW030CB SCT080 BKN120
     FM020000 23003KT P6SM BKN250
     FM020600 27005KT P6SM SCT250=



000
FTUS42 KMFL 011733
TAFAPF
TAF
KAPF 011733Z 0118/0218 25011KT P6SM VCTS FEW020CB SCT080
     FM011900 25009KT P6SM VCTS SCT035CB SCT050
     FM012300 27002KT P6SM FEW025 SCT250
     FM020600 27005KT P6SM VCSH FEW025 SCT250=



000
FTUS42 KMFL 011733
TAFMIA
TAF
KMIA 011733Z 0118/0218 23008KT P6SM VCTS FEW030CB SCT080
     FM012300 24005KT P6SM FEW030 SCT080 BKN120
     FM020000 23003KT P6SM BKN250
     FM020600 26005KT P6SM SCT250=



000
FTUS42 KMFL 011520 AAB
TAFAPF
TAF AMD
KAPF 011520Z 0115/0212 25011KT P6SM VCTS FEW020CB SCT080
     FM011900 25009KT P6SM VCTS SCT035CB SCT050
     FM012300 27002KT P6SM FEW025 SCT250=



000
FTUS42 KMFL 011520 AAB
TAFFLL
TAF AMD
KFLL 011520Z 0115/0212 25011KT P6SM VCSH BKN023 BKN090 BKN250
     FM011800 25007KT P6SM VCTS FEW030CB SCT080 BKN120
     FM012000 24005KT P6SM FEW030 SCT080 BKN120
     FM020000 23003KT P6SM BKN250=



000
FTUS42 KMFL 011520 AAB
TAFMIA
TAF AMD
KMIA 011520Z 0115/0212 25010KT P6SM VCSH SCT027 SCT200
     FM011800 23008KT P6SM VCTS FEW030CB SCT080
     FM012000 24005KT P6SM FEW030 SCT080 BKN120
     FM020000 23003KT P6SM BKN250=



000
FTUS42 KMFL 011520 AAB
TAFPBI
TAF AMD
KPBI 011520Z 0115/0212 25009KT P6SM VCSH FEW017 SCT023 SCT045
     FM011800 24005KT P6SM VCTS FEW030CB SCT080 BKN120
     FM020000 23003KT P6SM BKN250=



000
FTUS42 KMFL 011319 AAA
TAFMIA
TAF AMD
KMIA 011319Z 0113/0212 22005KT P6SM FEW025 FEW200
     FM011500 24006KT P6SM VCSH FEW025 FEW150
     FM011800 23008KT P6SM VCTS FEW030CB SCT080
     FM012000 24005KT P6SM FEW030 SCT080 BKN120
     FM020000 23003KT P6SM BKN250=



000
FTUS42 KMFL 011319 AAA
TAFPBI
TAF AMD
KPBI 011319Z 0113/0212 24005KT P6SM FEW025 FEW150 SCT200
     FM011500 24006KT P6SM VCSH FEW025 FEW150
     FM011800 24005KT P6SM VCTS FEW030CB SCT080 BKN120
     FM020000 23003KT P6SM BKN250=



000
FTUS42 KMFL 011319 AAA
TAFFLL
TAF AMD
KFLL 011319Z 0113/0212 VRB06KT P6SM FEW018 FEW090 SCT250
     FM011500 24006KT P6SM VCSH FEW025 FEW150
     FM011800 25007KT P6SM VCTS FEW030CB SCT080 BKN120
     FM012000 24005KT P6SM FEW030 SCT080 BKN120
     FM020000 23003KT P6SM BKN250=



000
FTUS42 KMFL 011319 AAA
TAFFLL
TAF AMD
KFLL 011319Z 0113/0212 VRB06KT P6SM FEW018 FEW090 SCT250
     FM011500 24006KT P6SM VCSH FEW025 FEW150
     FM011800 25007KT P6SM VCTS FEW030CB SCT080 BKN120
     FM012000 24005KT P6SM FEW030 SCT080 BKN120
     FM020000 23003KT P6SM BKN250=



000
FTUS42 KMFL 011319 AAA
TAFAPF
TAF AMD
KAPF 011319Z 0113/0212 00000KT P6SM VCSH FEW060 SCT070 SCT080
     FM011400 22005KT P6SM VCTS SCT035CB BKN120
     FM011900 25009KT P6SM VCTS SCT035CB SCT050
     FM012300 27002KT P6SM FEW025 SCT250=



000
FTUS42 KMFL 011319 AAA
TAFAPF
TAF AMD
KAPF 011319Z 0113/0212 00000KT P6SM VCSH FEW060 SCT070 SCT080
     FM011400 22005KT P6SM VCTS SCT035CB BKN120
     FM011900 25009KT P6SM VCTS SCT035CB SCT050
     FM012300 27002KT P6SM FEW025 SCT250=



000
FTUS42 KMFL 011319 AAA
TAFMIA
TAF AMD
KMIA 011319Z 0113/0212 22005KT P6SM FEW025 FEW200
     FM011500 24006KT P6SM VCSH FEW025 FEW150
     FM011800 23008KT P6SM VCTS FEW030CB SCT080
     FM012000 24005KT P6SM FEW030 SCT080 BKN120
     FM020000 23003KT P6SM BKN250=



000
FTUS42 KMFL 011131
TAFFLL
TAF
KFLL 011131Z 0112/0212 27004KT P6SM FEW250
     FM011800 25007KT P6SM SCT250
     FM012000 24005KT P6SM VCTS FEW030CB SCT080 BKN120
     FM020000 23003KT P6SM BKN250=



000
FTUS42 KMFL 011131
TAFAPF
TAF
KAPF 011131Z 0112/0212 23004KT P6SM VCSH FEW023 BKN120
     FM011400 22005KT P6SM VCTS SCT035CB BKN120
     FM011900 25009KT P6SM VCTS SCT035CB SCT050
     FM012300 27002KT P6SM FEW025 SCT250=



000
FTUS42 KMFL 011131
TAFMIA
TAF
KMIA 011131Z 0112/0212 VRB03KT P6SM BKN250
     FM011800 23008KT P6SM BKN250
     FM012000 24005KT P6SM VCTS FEW030CB SCT080 BKN120
     FM020000 23003KT P6SM BKN250=



000
FTUS42 KMFL 011131
TAFPBI
TAF
KPBI 011131Z 0112/0212 27003KT P6SM BKN250
     FM011800 24006KT P6SM BKN250
     FM012000 24005KT P6SM VCTS FEW030CB SCT080 BKN120
     FM020000 23003KT P6SM BKN250=



000
FTUS42 KMFL 011131
TAFFLL
TAF
KFLL 011131Z 0112/0212 27004KT P6SM FEW250
     FM011800 25007KT P6SM SCT250
     FM012000 24005KT P6SM VCTS FEW030CB SCT080 BKN120
     FM020000 23003KT P6SM BKN250=



000
FTUS42 KMFL 011131
TAFPBI
TAF
KPBI 011131Z 0112/0212 27003KT P6SM BKN250
     FM011800 24006KT P6SM BKN250
     FM012000 24005KT P6SM VCTS FEW030CB SCT080 BKN120
     FM020000 23003KT P6SM BKN250=



000
FTUS42 KMFL 011131
TAFAPF
TAF
KAPF 011131Z 0112/0212 23004KT P6SM VCSH FEW023 BKN120
     FM011400 22005KT P6SM VCTS SCT035CB BKN120
     FM011900 25009KT P6SM VCTS SCT035CB SCT050
     FM012300 27002KT P6SM FEW025 SCT250=



000
FTUS42 KMFL 011131
TAFMIA
TAF
KMIA 011131Z 0112/0212 VRB03KT P6SM BKN250
     FM011800 23008KT P6SM BKN250
     FM012000 24005KT P6SM VCTS FEW030CB SCT080 BKN120
     FM020000 23003KT P6SM BKN250=



000
FTUS42 KMFL 010905 AAA
TAFPBI
TAF AMD
KPBI 010905Z 0109/0206 24002KT P6SM SKC
     FM011500 24005KT P6SM VCSH SCT035
     FM012000 19010KT P6SM VCTS SCT035CB BKN050
     FM020000 24005KT P6SM VCSH FEW030 SCT080 BKN120
     FM020200 26002KT P6SM FEW025 SCT250=



000
FTUS42 KMFL 010905 AAA
TAFMIA
TAF AMD
KMIA 010905Z 0109/0206 20003KT P6SM FEW020 BKN250
     FM011500 25005KT P6SM VCSH SCT035
     FM012000 19010KT P6SM VCTS SCT035CB BKN050
     FM020000 24005KT P6SM VCSH FEW030 SCT080 BKN120
     FM020200 26002KT P6SM FEW025 SCT250=



000
FTUS42 KMFL 010905 AAA
TAFAPF
TAF AMD
KAPF 010905Z 0109/0206 23004KT P6SM FEW023
     FM011400 22005KT P6SM SCT035
     FM011900 25009KT P6SM VCSH SCT035 SCT050
     FM012300 27002KT P6SM FEW025 SCT250=



000
FTUS42 KMFL 010905 AAA
TAFMIA
TAF AMD
KMIA 010905Z 0109/0206 20003KT P6SM FEW020 BKN250
     FM011500 25005KT P6SM VCSH SCT035
     FM012000 19010KT P6SM VCTS SCT035CB BKN050
     FM020000 24005KT P6SM VCSH FEW030 SCT080 BKN120
     FM020200 26002KT P6SM FEW025 SCT250=



000
FTUS42 KMFL 010905 AAA
TAFFLL
TAF AMD
KFLL 010905Z 0109/0206 24003KT P6SM SKC
     FM011500 25005KT P6SM VCSH SCT035
     FM012000 19010KT P6SM VCTS SCT035CB BKN050
     FM020000 24005KT P6SM VCSH FEW030 SCT080 BKN120
     FM020200 26002KT P6SM FEW025 SCT250=



000
FTUS42 KMFL 010905 AAA
TAFPBI
TAF AMD
KPBI 010905Z 0109/0206 24002KT P6SM SKC
     FM011500 24005KT P6SM VCSH SCT035
     FM012000 19010KT P6SM VCTS SCT035CB BKN050
     FM020000 24005KT P6SM VCSH FEW030 SCT080 BKN120
     FM020200 26002KT P6SM FEW025 SCT250=



000
FTUS42 KMFL 010905 AAA
TAFFLL
TAF AMD
KFLL 010905Z 0109/0206 24003KT P6SM SKC
     FM011500 25005KT P6SM VCSH SCT035
     FM012000 19010KT P6SM VCTS SCT035CB BKN050
     FM020000 24005KT P6SM VCSH FEW030 SCT080 BKN120
     FM020200 26002KT P6SM FEW025 SCT250=



000
FTUS42 KMFL 010905 AAA
TAFAPF
TAF AMD
KAPF 010905Z 0109/0206 23004KT P6SM FEW023
     FM011400 22005KT P6SM SCT035
     FM011900 25009KT P6SM VCSH SCT035 SCT050
     FM012300 27002KT P6SM FEW025 SCT250=



000
FTUS42 KMFL 010531
TAFPBI
TAF
KPBI 010531Z 0106/0206 24002KT P6SM FEW035 SCT250
     FM011500 24005KT P6SM VCSH SCT035
     FM012000 19010KT P6SM VCTS SCT035CB BKN050
     FM020000 24005KT P6SM VCSH FEW030 SCT080 BKN120
     FM020200 26002KT P6SM FEW025 SCT250=



000
FTUS42 KMFL 010531
TAFAPF
TAF
KAPF 010531Z 0106/0206 24003KT P6SM FEW025 SCT250
     FM011400 22005KT P6SM SCT035
     FM011900 25009KT P6SM VCSH SCT035 SCT050
     FM012300 27002KT P6SM FEW025 SCT250=



000
FTUS42 KMFL 010531
TAFMIA
TAF
KMIA 010531Z 0106/0206 25002KT P6SM FEW025 SCT250
     FM011500 25005KT P6SM VCSH SCT035
     FM012000 19010KT P6SM VCTS SCT035CB BKN050
     FM020000 24005KT P6SM VCSH FEW030 SCT080 BKN120
     FM020200 26002KT P6SM FEW025 SCT250=



000
FTUS42 KMFL 010531
TAFFLL
TAF
KFLL 010531Z 0106/0206 23002KT P6SM FEW025 SCT250
     FM011500 25005KT P6SM VCSH SCT035
     FM012000 19010KT P6SM VCTS SCT035CB BKN050
     FM020000 24005KT P6SM VCSH FEW030 SCT080 BKN120
     FM020200 26002KT P6SM FEW025 SCT250=



000
FTUS42 KMFL 010531
TAFPBI
TAF
KPBI 010531Z 0106/0206 24002KT P6SM FEW035 SCT250
     FM011500 24005KT P6SM VCSH SCT035
     FM012000 19010KT P6SM VCTS SCT035CB BKN050
     FM020000 24005KT P6SM VCSH FEW030 SCT080 BKN120
     FM020200 26002KT P6SM FEW025 SCT250=



000
FTUS42 KMFL 010531
TAFAPF
TAF
KAPF 010531Z 0106/0206 24003KT P6SM FEW025 SCT250
     FM011400 22005KT P6SM SCT035
     FM011900 25009KT P6SM VCSH SCT035 SCT050
     FM012300 27002KT P6SM FEW025 SCT250=



000
FTUS42 KMFL 010531
TAFMIA
TAF
KMIA 010531Z 0106/0206 25002KT P6SM FEW025 SCT250
     FM011500 25005KT P6SM VCSH SCT035
     FM012000 19010KT P6SM VCTS SCT035CB BKN050
     FM020000 24005KT P6SM VCSH FEW030 SCT080 BKN120
     FM020200 26002KT P6SM FEW025 SCT250=



000
FTUS42 KMFL 010531
TAFFLL
TAF
KFLL 010531Z 0106/0206 23002KT P6SM FEW025 SCT250
     FM011500 25005KT P6SM VCSH SCT035
     FM012000 19010KT P6SM VCTS SCT035CB BKN050
     FM020000 24005KT P6SM VCSH FEW030 SCT080 BKN120
     FM020200 26002KT P6SM FEW025 SCT250=



000
FTUS42 KMFL 010403 AAA
TAFFLL
TAF AMD
KFLL 010403Z 0104/0124 23003KT P6SM FEW025 SCT250
     FM011500 25007KT P6SM VCSH SCT035
     FM011900 17009KT P6SM VCTS SCT035CB BKN050=



000
FTUS42 KMFL 010403 AAA
TAFPBI
TAF AMD
KPBI 010403Z 0104/0124 00000KT P6SM FEW035 SCT250
     FM011500 24007KT P6SM VCSH SCT035
     FM011900 17009KT P6SM VCTS SCT035CB BKN050=



000
FTUS42 KMFL 010403 AAA
TAFMIA
TAF AMD
KMIA 010403Z 0104/0124 25004KT P6SM FEW025 SCT250
     FM011500 23007KT P6SM VCSH SCT035
     FM011900 19009KT P6SM VCTS SCT035CB BKN050=



000
FTUS42 KMFL 010403 AAA
TAFAPF
TAF AMD
KAPF 010403Z 0104/0124 24003KT P6SM FEW025 SCT250
     FM011400 22007KT P6SM SCT035
     FM011900 25009KT P6SM VCSH SCT035=



000
FTUS42 KMFL 010403 AAA
TAFFLL
TAF AMD
KFLL 010403Z 0104/0124 23003KT P6SM FEW025 SCT250
     FM011500 25007KT P6SM VCSH SCT035
     FM011900 17009KT P6SM VCTS SCT035CB BKN050=



000
FTUS42 KMFL 010403 AAA
TAFAPF
TAF AMD
KAPF 010403Z 0104/0124 24003KT P6SM FEW025 SCT250
     FM011400 22007KT P6SM SCT035
     FM011900 25009KT P6SM VCSH SCT035=



000
FTUS42 KMFL 010403 AAA
TAFMIA
TAF AMD
KMIA 010403Z 0104/0124 25004KT P6SM FEW025 SCT250
     FM011500 23007KT P6SM VCSH SCT035
     FM011900 19009KT P6SM VCTS SCT035CB BKN050=



000
FTUS42 KMFL 010403 AAA
TAFPBI
TAF AMD
KPBI 010403Z 0104/0124 00000KT P6SM FEW035 SCT250
     FM011500 24007KT P6SM VCSH SCT035
     FM011900 17009KT P6SM VCTS SCT035CB BKN050=



000
FTUS42 KMFL 302330
TAFFLL
TAF
KFLL 302330Z 0100/0124 25007KT P6SM FEW035 SCT250
     FM010300 VRB04KT P6SM FEW025 SCT250
     FM011500 25007KT P6SM VCSH SCT035
     FM011900 17009KT P6SM VCTS SCT035CB BKN050=



000
FTUS42 KMFL 302330
TAFMIA
TAF
KMIA 302330Z 0100/0124 26007KT P6SM FEW025 SCT250
     FM010300 VRB04KT P6SM FEW025 SCT250
     FM011500 23007KT P6SM VCSH SCT035
     FM011900 19009KT P6SM VCTS SCT035CB BKN050=



000
FTUS42 KMFL 302330
TAFAPF
TAF
KAPF 302330Z 0100/0124 26008KT P6SM VCSH SCT025 SCT250
     FM010300 VRB04KT P6SM FEW025 SCT250
     FM011400 22007KT P6SM SCT035
     FM011900 25009KT P6SM VCSH SCT035=



000
FTUS42 KMFL 302330
TAFMIA
TAF
KMIA 302330Z 0100/0124 26007KT P6SM FEW025 SCT250
     FM010300 VRB04KT P6SM FEW025 SCT250
     FM011500 23007KT P6SM VCSH SCT035
     FM011900 19009KT P6SM VCTS SCT035CB BKN050=



000
FTUS42 KMFL 302330
TAFPBI
TAF
KPBI 302330Z 0100/0124 26010KT P6SM VCTS BKN035CB
     FM010200 VRB04KT P6SM FEW025 SCT250
     FM011500 24007KT P6SM VCSH SCT035
     FM011900 17009KT P6SM VCTS SCT035CB BKN050=



000
FTUS42 KMFL 302330
TAFFLL
TAF
KFLL 302330Z 0100/0124 25007KT P6SM FEW035 SCT250
     FM010300 VRB04KT P6SM FEW025 SCT250
     FM011500 25007KT P6SM VCSH SCT035
     FM011900 17009KT P6SM VCTS SCT035CB BKN050=



000
FTUS42 KMFL 302330
TAFAPF
TAF
KAPF 302330Z 0100/0124 26008KT P6SM VCSH SCT025 SCT250
     FM010300 VRB04KT P6SM FEW025 SCT250
     FM011400 22007KT P6SM SCT035
     FM011900 25009KT P6SM VCSH SCT035=



000
FTUS42 KMFL 302330
TAFPBI
TAF
KPBI 302330Z 0100/0124 26010KT P6SM VCTS BKN035CB
     FM010200 VRB04KT P6SM FEW025 SCT250
     FM011500 24007KT P6SM VCSH SCT035
     FM011900 17009KT P6SM VCTS SCT035CB BKN050=



000
FTUS42 KMFL 302243 AAB
TAFPBI
TAF AMD
KPBI 302243Z 3023/0118 27010KT P6SM VCTS SCT025CB BKN040
     FM010100 VRB02KT P6SM FEW025 SCT250=



000
FTUS42 KMFL 302111 AAA
TAFAPF
TAF AMD
KAPF 302111Z 3021/0118 25007KT P6SM VCSH SCT020 SCT250
     FM010300 VRB03KT P6SM FEW020 SCT250=



000
FTUS42 KMFL 302111 AAA
TAFAPF
TAF AMD
KAPF 302111Z 3021/0118 25007KT P6SM VCSH SCT020 SCT250
     FM010300 VRB03KT P6SM FEW020 SCT250=



000
FTUS42 KMFL 302106 AAA
TAFMIA
TAF AMD
KMIA 302106Z 3021/0118 26008KT P6SM VCSH SCT030 BKN250
     FM010200 VRB02KT P6SM FEW025 SCT250=



000
FTUS42 KMFL 302106 AAA
TAFMIA
TAF AMD
KMIA 302106Z 3021/0118 26008KT P6SM VCSH SCT030 BKN250
     FM010200 VRB02KT P6SM FEW025 SCT250=



000
FTUS42 KMFL 302105 AAA
TAFFLL
TAF AMD
KFLL 302105Z 3021/0118 23009KT P6SM VCSH SCT030 SCT250
     FM010200 VRB02KT P6SM FEW025 SCT250=



000
FTUS42 KMFL 302105 AAA
TAFFLL
TAF AMD
KFLL 302105Z 3021/0118 23009KT P6SM VCSH SCT030 SCT250
     FM010200 VRB02KT P6SM FEW025 SCT250=



000
FTUS42 KMFL 302103 AAA
TAFPBI
TAF AMD
KPBI 302103Z 3021/0118 25010KT P6SM VCTS SCT025CB BKN040
     FM302300 28005KT P6SM VCSH FEW025 SCT080 BKN250
     FM010200 VRB02KT P6SM FEW025 SCT250=



000
FTUS42 KMFL 302103 AAA
TAFPBI
TAF AMD
KPBI 302103Z 3021/0118 25010KT P6SM VCTS SCT025CB BKN040
     FM302300 28005KT P6SM VCSH FEW025 SCT080 BKN250
     FM010200 VRB02KT P6SM FEW025 SCT250=



000
FTUS42 KMFL 301700
TAFAPF
TAF
KAPF 301733Z 3018/0118 25006KT P6SM VCTS SCT020CB SCT050 SCT250
     FM302300 VRB03KT P6SM FEW020 SCT080 SCT250=



000
FTUS42 KMFL 301700
TAFFLL
TAF
KFLL 301733Z 3018/0118 22011KT P6SM VCTS SCT030CB SCT050 SCT250
     FM302300 28005KT P6SM VCSH FEW030 SCT080 BKN250
     FM010200 VRB02KT P6SM FEW025 SCT250=



000
FTUS42 KMFL 301700
TAFPBI
TAF
KPBI 301733Z 3018/0118 25010KT P6SM VCTS SCT025CB SCT050 SCT250
     FM302300 28005KT P6SM VCSH FEW025 SCT080 BKN250
     FM010200 VRB02KT P6SM FEW025 SCT250=



000
FTUS42 KMFL 301700
TAFMIA
TAF
KMIA 301733Z 3018/0118 27012KT P6SM VCTS SCT030CB BKN050 BKN250
     FM302300 27005KT P6SM VCSH FEW030 SCT080 BKN250
     FM010200 VRB02KT P6SM FEW025 SCT250=



000
FTUS42 KMFL 301700
TAFAPF
TAF
KAPF 301733Z 3018/0118 25006KT P6SM VCTS SCT020CB SCT050 SCT250
     FM302300 VRB03KT P6SM FEW020 SCT080 SCT250=



000
FTUS42 KMFL 301700
TAFPBI
TAF
KPBI 301733Z 3018/0118 25010KT P6SM VCTS SCT025CB SCT050 SCT250
     FM302300 28005KT P6SM VCSH FEW025 SCT080 BKN250
     FM010200 VRB02KT P6SM FEW025 SCT250=



000
FTUS42 KMFL 301700
TAFFLL
TAF
KFLL 301733Z 3018/0118 22011KT P6SM VCTS SCT030CB SCT050 SCT250
     FM302300 28005KT P6SM VCSH FEW030 SCT080 BKN250
     FM010200 VRB02KT P6SM FEW025 SCT250=



000
FTUS42 KMFL 301700 AAA
TAFFLL
TAF AMD
KFLL 301724Z 3017/0112 23008KT P6SM VCTS FEW025CB SCT050 SCT250
     FM302300 28005KT P6SM VCSH FEW030 SCT080 BKN120
     FM010200 VRB02KT P6SM FEW025 SCT250=



000
FTUS42 KMFL 301700 AAB
TAFFLL
TAF AMD
KFLL 301705Z 3017/0112 23008KT P6SM VCTS FEW025CB SCT050 SCT250
      TEMPO 3017/3018 27015G28KT 1SM TSRA BR BKN025CB OVC050
     FM302300 28005KT P6SM VCSH FEW030 SCT080 BKN120
     FM010200 VRB02KT P6SM FEW025 SCT250=



000
FTUS42 KMFL 301700 AAB
TAFFLL
TAF AMD
KFLL 301705Z 3017/0112 23008KT P6SM VCTS FEW025CB SCT050 SCT250
      TEMPO 3017/3018 27015G28KT 1SM TSRA BR BKN025CB OVC050
     FM302300 28005KT P6SM VCSH FEW030 SCT080 BKN120
     FM010200 VRB02KT P6SM FEW025 SCT250=



000
FTUS42 KMFL 301400 AAA
TAFMIA
TAF AMD
KMIA 301455Z 3015/0112 24008KT P6SM FEW025 SCT050 BKN250
     FM301700 24010KT P6SM VCTS SCT030CB BKN050
     FM302300 27005KT P6SM VCSH FEW030 SCT080 BKN120
     FM010200 VRB02KT P6SM FEW025 SCT250=



000
FTUS42 KMFL 301400 AAA
TAFAPF
TAF AMD
KAPF 301455Z 3015/0112 25006KT P6SM VCSH SCT020 SCT250
     FM301600 27010KT P6SM VCTS SCT030CB SCT050
     FM302300 VRB03KT P6SM FEW030 SCT250=



000
FTUS42 KMFL 301400 AAA
TAFPBI
TAF AMD
KPBI 301455Z 3015/0112 25009KT P6SM FEW030 SCT050 SCT250
     FM301700 25010KT P6SM VCTS SCT030CB BKN050
     FM302300 28005KT P6SM VCSH FEW030 SCT080 BKN120
     FM010200 VRB02KT P6SM FEW025 SCT250=



000
FTUS42 KMFL 301400 AAA
TAFMIA
TAF AMD
KMIA 301455Z 3015/0112 24008KT P6SM FEW025 SCT050 BKN250
     FM301700 24010KT P6SM VCTS SCT030CB BKN050
     FM302300 27005KT P6SM VCSH FEW030 SCT080 BKN120
     FM010200 VRB02KT P6SM FEW025 SCT250=



000
FTUS42 KMFL 301400 AAA
TAFFLL
TAF AMD
KFLL 301455Z 3015/0112 23008KT P6SM FEW020 SCT050 SCT250
     FM301700 25010KT P6SM VCTS SCT030CB BKN050
     FM302300 28005KT P6SM VCSH FEW030 SCT080 BKN120
     FM010200 VRB02KT P6SM FEW025 SCT250=



000
FTUS42 KMFL 301400 AAA
TAFFLL
TAF AMD
KFLL 301455Z 3015/0112 23008KT P6SM FEW020 SCT050 SCT250
     FM301700 25010KT P6SM VCTS SCT030CB BKN050
     FM302300 28005KT P6SM VCSH FEW030 SCT080 BKN120
     FM010200 VRB02KT P6SM FEW025 SCT250=



000
FTUS42 KMFL 301400 AAA
TAFPBI
TAF AMD
KPBI 301455Z 3015/0112 25009KT P6SM FEW030 SCT050 SCT250
     FM301700 25010KT P6SM VCTS SCT030CB BKN050
     FM302300 28005KT P6SM VCSH FEW030 SCT080 BKN120
     FM010200 VRB02KT P6SM FEW025 SCT250=



000
FTUS42 KMFL 301400 AAA
TAFAPF
TAF AMD
KAPF 301455Z 3015/0112 25006KT P6SM VCSH SCT020 SCT250
     FM301600 27010KT P6SM VCTS SCT030CB SCT050
     FM302300 VRB03KT P6SM FEW030 SCT250=



000
FTUS42 KMFL 301136
TAFAPF
TAF
KAPF 301136Z 3012/0112 25006KT P6SM FEW025 SCT250
     FM301400 27010KT P6SM VCSH SCT030 SCT050
     FM302300 VRB03KT P6SM FEW030 SCT250=



000
FTUS42 KMFL 301136
TAFPBI
TAF
KPBI 301136Z 3012/0112 25005KT P6SM FEW030 SCT050
     FM301700 25010KT P6SM VCTS SCT035CB BKN050
     FM302300 28005KT P6SM VCSH FEW030 SCT080 BKN120
     FM010200 VRB02KT P6SM FEW025 SCT250=



000
FTUS42 KMFL 301136
TAFFLL
TAF
KFLL 301136Z 3012/0112 25005KT P6SM FEW030 SCT050
     FM301700 25010KT P6SM VCTS SCT035CB BKN050
     FM302300 28005KT P6SM FEW030 SCT080 BKN120
     FM010200 VRB02KT P6SM FEW025 SCT250=



000
FTUS42 KMFL 301136
TAFMIA
TAF
KMIA 301136Z 3012/0112 24005KT P6SM FEW030 SCT050
     FM301700 24010KT P6SM VCTS SCT035CB BKN050
     FM302300 27005KT P6SM FEW030 SCT080 BKN120
     FM010200 VRB02KT P6SM FEW025 SCT250=



000
FTUS42 KMFL 301136
TAFMIA
TAF
KMIA 301136Z 3012/0112 24005KT P6SM FEW030 SCT050
     FM301700 24010KT P6SM VCTS SCT035CB BKN050
     FM302300 27005KT P6SM FEW030 SCT080 BKN120
     FM010200 VRB02KT P6SM FEW025 SCT250=



000
FTUS42 KMFL 301136
TAFPBI
TAF
KPBI 301136Z 3012/0112 25005KT P6SM FEW030 SCT050
     FM301700 25010KT P6SM VCTS SCT035CB BKN050
     FM302300 28005KT P6SM VCSH FEW030 SCT080 BKN120
     FM010200 VRB02KT P6SM FEW025 SCT250=



000
FTUS42 KMFL 301136
TAFAPF
TAF
KAPF 301136Z 3012/0112 25006KT P6SM FEW025 SCT250
     FM301400 27010KT P6SM VCSH SCT030 SCT050
     FM302300 VRB03KT P6SM FEW030 SCT250=



000
FTUS42 KMFL 301136
TAFFLL
TAF
KFLL 301136Z 3012/0112 25005KT P6SM FEW030 SCT050
     FM301700 25010KT P6SM VCTS SCT035CB BKN050
     FM302300 28005KT P6SM FEW030 SCT080 BKN120
     FM010200 VRB02KT P6SM FEW025 SCT250=



000
FTUS42 KMFL 300903 AAA
TAFPBI
TAF AMD
KPBI 300903Z 3009/0106 VRB02KT P6SM FEW250
     FM301300 25005KT P6SM FEW030 SCT050
     FM301700 25010KT P6SM VCTS SCT035CB BKN050
     FM302300 28005KT P6SM VCSH FEW030 SCT080 BKN120
     FM010200 VRB02KT P6SM FEW025 SCT250=



000
FTUS42 KMFL 300903 AAA
TAFFLL
TAF AMD
KFLL 300903Z 3009/0106 25003KT P6SM FEW025 SCT250
     FM301300 25005KT P6SM FEW030 SCT050
     FM301700 25010KT P6SM VCTS SCT035CB BKN050
     FM302300 28005KT P6SM VCSH FEW030 SCT080 BKN120
     FM010200 VRB02KT P6SM FEW025 SCT250=



000
FTUS42 KMFL 300903 AAA
TAFAPF
TAF AMD
KAPF 300903Z 3009/0106 VRB02KT P6SM FEW025 SCT250
     FM301400 26008KT P6SM VCSH SCT030 SCT050
     FM302300 VRB03KT P6SM FEW030 SCT250=



000
FTUS42 KMFL 300903 AAA
TAFMIA
TAF AMD
KMIA 300903Z 3009/0106 VRB02KT P6SM FEW025 SCT250
     FM301300 24005KT P6SM FEW030 SCT050
     FM301700 24010KT P6SM VCTS SCT035CB BKN050
     FM302300 27005KT P6SM VCSH FEW030 SCT080 BKN120
     FM010200 VRB02KT P6SM FEW025 SCT250=



000
FTUS42 KMFL 300903 AAA
TAFPBI
TAF AMD
KPBI 300903Z 3009/0106 VRB02KT P6SM FEW250
     FM301300 25005KT P6SM FEW030 SCT050
     FM301700 25010KT P6SM VCTS SCT035CB BKN050
     FM302300 28005KT P6SM VCSH FEW030 SCT080 BKN120
     FM010200 VRB02KT P6SM FEW025 SCT250=



000
FTUS42 KMFL 300903 AAA
TAFFLL
TAF AMD
KFLL 300903Z 3009/0106 25003KT P6SM FEW025 SCT250
     FM301300 25005KT P6SM FEW030 SCT050
     FM301700 25010KT P6SM VCTS SCT035CB BKN050
     FM302300 28005KT P6SM VCSH FEW030 SCT080 BKN120
     FM010200 VRB02KT P6SM FEW025 SCT250=



000
FTUS42 KMFL 300903 AAA
TAFAPF
TAF AMD
KAPF 300903Z 3009/0106 VRB02KT P6SM FEW025 SCT250
     FM301400 26008KT P6SM VCSH SCT030 SCT050
     FM302300 VRB03KT P6SM FEW030 SCT250=



000
FTUS42 KMFL 300903 AAA
TAFMIA
TAF AMD
KMIA 300903Z 3009/0106 VRB02KT P6SM FEW025 SCT250
     FM301300 24005KT P6SM FEW030 SCT050
     FM301700 24010KT P6SM VCTS SCT035CB BKN050
     FM302300 27005KT P6SM VCSH FEW030 SCT080 BKN120
     FM010200 VRB02KT P6SM FEW025 SCT250=



000
FTUS42 KMFL 300530
TAFMIA
TAF
KMIA 300530Z 3006/0106 VRB02KT P6SM FEW025 SCT250
     FM301300 24005KT P6SM FEW030 SCT050
     FM301700 24010KT P6SM VCTS SCT035CB BKN050
     FM302300 27005KT P6SM VCSH FEW030 SCT080 BKN120
     FM010200 VRB02KT P6SM FEW025 SCT250=



000
FTUS42 KMFL 300530
TAFFLL
TAF
KFLL 300530Z 3006/0106 VRB03KT P6SM FEW025 SCT250
     FM301300 25005KT P6SM FEW030 SCT050
     FM301700 25010KT P6SM VCTS SCT035CB BKN050
     FM302300 28005KT P6SM VCSH FEW030 SCT080 BKN120
     FM010200 VRB02KT P6SM FEW025 SCT250=



000
FTUS42 KMFL 300530
TAFAPF
TAF
KAPF 300530Z 3006/0106 07003KT P6SM FEW025 SCT250
     FM301400 26008KT P6SM VCSH SCT030 SCT050
     FM302300 VRB03KT P6SM FEW030 SCT250=



000
FTUS42 KMFL 300530
TAFPBI
TAF
KPBI 300530Z 3006/0106 VRB02KT P6SM FEW025 SCT250
     FM301300 25005KT P6SM FEW030 SCT050
     FM301700 25010KT P6SM VCTS SCT035CB BKN050
     FM302300 28005KT P6SM VCSH FEW030 SCT080 BKN120
     FM010200 VRB02KT P6SM FEW025 SCT250=



000
FTUS42 KMFL 300530
TAFPBI
TAF
KPBI 300530Z 3006/0106 VRB02KT P6SM FEW025 SCT250
     FM301300 25005KT P6SM FEW030 SCT050
     FM301700 25010KT P6SM VCTS SCT035CB BKN050
     FM302300 28005KT P6SM VCSH FEW030 SCT080 BKN120
     FM010200 VRB02KT P6SM FEW025 SCT250=



000
FTUS42 KMFL 300530
TAFMIA
TAF
KMIA 300530Z 3006/0106 VRB02KT P6SM FEW025 SCT250
     FM301300 24005KT P6SM FEW030 SCT050
     FM301700 24010KT P6SM VCTS SCT035CB BKN050
     FM302300 27005KT P6SM VCSH FEW030 SCT080 BKN120
     FM010200 VRB02KT P6SM FEW025 SCT250=



000
FTUS42 KMFL 300530
TAFFLL
TAF
KFLL 300530Z 3006/0106 VRB03KT P6SM FEW025 SCT250
     FM301300 25005KT P6SM FEW030 SCT050
     FM301700 25010KT P6SM VCTS SCT035CB BKN050
     FM302300 28005KT P6SM VCSH FEW030 SCT080 BKN120
     FM010200 VRB02KT P6SM FEW025 SCT250=



000
FTUS42 KMFL 300530
TAFAPF
TAF
KAPF 300530Z 3006/0106 07003KT P6SM FEW025 SCT250
     FM301400 26008KT P6SM VCSH SCT030 SCT050
     FM302300 VRB03KT P6SM FEW030 SCT250=



000
FTUS42 KMFL 300310 AAA
TAFMIA
TAF AMD
KMIA 300310Z 3003/3024 VRB02KT P6SM FEW025 SCT250
     FM301500 24008KT P6SM SCT040
     FM301900 23008KT P6SM VCTS SCT025CB BKN040=



000
FTUS42 KMFL 300310 AAA
TAFMIA
TAF AMD
KMIA 300310Z 3003/3024 VRB02KT P6SM FEW025 SCT250
     FM301500 24008KT P6SM SCT040
     FM301900 23008KT P6SM VCTS SCT025CB BKN040=



000
FTUS42 KMFL 300310 AAA
TAFPBI
TAF AMD
KPBI 300310Z 3003/3024 VRB03KT P6SM FEW040 SCT070 BKN120
     FM301400 25008KT P6SM SCT040
     FM301800 25010KT P6SM VCTS SCT025CB BKN050=



000
FTUS42 KMFL 300310 AAA
TAFPBI
TAF AMD
KPBI 300310Z 3003/3024 VRB03KT P6SM FEW040 SCT070 BKN120
     FM301400 25008KT P6SM SCT040
     FM301800 25010KT P6SM VCTS SCT025CB BKN050=



000
FTUS42 KMFL 300310 AAB
TAFAPF
TAF AMD
KAPF 300310Z 3003/3024 28006KT P6SM VCSH SCT045 BKN070
      TEMPO 3003/3004 3SM RA SCT040 BKN070
     FM300400 VRB03KT P6SM FEW025 SCT250
     FM301500 25009KT P6SM SCT040=



000
FTUS42 KMFL 300310 AAB
TAFAPF
TAF AMD
KAPF 300310Z 3003/3024 28006KT P6SM VCSH SCT045 BKN070
      TEMPO 3003/3004 3SM RA SCT040 BKN070
     FM300400 VRB03KT P6SM FEW025 SCT250
     FM301500 25009KT P6SM SCT040=



000
FTUS42 KMFL 300310 AAA
TAFFLL
TAF AMD
KFLL 300310Z 3003/3024 VRB03KT P6SM FEW030 SCT250
     FM301500 25008KT P6SM SCT040
     FM301900 23008KT P6SM VCTS SCT025CB BKN040=



000
FTUS42 KMFL 300219 AAA
TAFAPF
TAF AMD
KAPF 300219Z 3002/3024 VRB03KT P6SM VCSH FEW025 SCT050
     FM300400 VRB03KT P6SM FEW025 SCT250
     FM301500 25009KT P6SM SCT040=



000
FTUS42 KMFL 300219 AAA
TAFAPF
TAF AMD
KAPF 300219Z 3002/3024 VRB03KT P6SM VCSH FEW025 SCT050
     FM300400 VRB03KT P6SM FEW025 SCT250
     FM301500 25009KT P6SM SCT040=



000
FTUS42 KMFL 292340
TAFAPF
TAF
KAPF 292340Z 3000/3024 26006KT P6SM FEW030
     FM300500 07004KT P6SM FEW060 SCT250
     FM301500 25009KT P6SM SCT040=



000
FTUS42 KMFL 292340
TAFMIA
TAF
KMIA 292340Z 3000/3024 21009KT P6SM VCSH SCT025 BKN080
     FM300300 25004KT P6SM FEW030 BKN250
     FM301500 24008KT P6SM SCT040
     FM301900 23008KT P6SM VCTS SCT025CB BKN040=



000
FTUS42 KMFL 292340
TAFPBI
TAF
KPBI 292340Z 3000/3024 14010KT P6SM TSRA BKN025CB
      TEMPO 3000/3001 2SM TSRA
     FM300130 14010KT P6SM VCSH SCT030 BKN050
     FM300300 26004KT P6SM FEW030 BKN250
     FM301400 25008KT P6SM SCT040
     FM301800 25010KT P6SM VCTS SCT025CB BKN050=



000
FTUS42 KMFL 292340
TAFPBI
TAF
KPBI 292340Z 3000/3024 14010KT P6SM TSRA BKN025CB
      TEMPO 3000/3001 2SM TSRA
     FM300130 14010KT P6SM VCSH SCT030 BKN050
     FM300300 26004KT P6SM FEW030 BKN250
     FM301400 25008KT P6SM SCT040
     FM301800 25010KT P6SM VCTS SCT025CB BKN050=



000
FTUS42 KMFL 292340
TAFMIA
TAF
KMIA 292340Z 3000/3024 21009KT P6SM VCSH SCT025 BKN080
     FM300300 25004KT P6SM FEW030 BKN250
     FM301500 24008KT P6SM SCT040
     FM301900 23008KT P6SM VCTS SCT025CB BKN040=



000
FTUS42 KMFL 292340
TAFAPF
TAF
KAPF 292340Z 3000/3024 26006KT P6SM FEW030
     FM300500 07004KT P6SM FEW060 SCT250
     FM301500 25009KT P6SM SCT040=



000
FTUS42 KMFL 292340
TAFFLL
TAF
KFLL 292340Z 3000/3024 15009KT P6SM VCSH SCT025 BKN250
     FM300300 24004KT P6SM FEW030 BKN250
     FM301500 25008KT P6SM SCT040
     FM301900 23008KT P6SM VCTS SCT025CB BKN040=



000
FTUS42 KMFL 292340
TAFFLL
TAF
KFLL 292340Z 3000/3024 15009KT P6SM VCSH SCT025 BKN250
     FM300300 24004KT P6SM FEW030 BKN250
     FM301500 25008KT P6SM SCT040
     FM301900 23008KT P6SM VCTS SCT025CB BKN040=



000
FTUS42 KMFL 292301 AAB
TAFPBI
TAF AMD
KPBI 292301Z 2923/3018 13010KT P6SM VCTS BKN025CB
      TEMPO 2923/3001 2SM TSRA
     FM300100 14010KT P6SM VCSH SCT030 BKN050
     FM300300 21004KT P6SM FEW030 SCT120 BKN250=



000
FTUS42 KMFL 292104 AAA
TAFMIA
TAF AMD
KMIA 292104Z 2921/3018 13008KT P6SM VCTS SCT030CB BKN250
     FM292300 14010KT P6SM VCSH SCT025 BKN250
     FM300100 21004KT P6SM SCT030 SCT120 BKN250=



000
FTUS42 KMFL 292104 AAA
TAFMIA
TAF AMD
KMIA 292104Z 2921/3018 13008KT P6SM VCTS SCT030CB BKN250
     FM292300 14010KT P6SM VCSH SCT025 BKN250
     FM300100 21004KT P6SM SCT030 SCT120 BKN250=



000
FTUS42 KMFL 292101 AAA
TAFFLL
TAF AMD
KFLL 292101Z 2921/3018 13010KT P6SM VCSH FEW030 SCT250
     FM292200 14008KT P6SM VCTS SCT035CB BKN120
     FM300100 21003KT P6SM SCT030 SCT120 BKN250=



000
FTUS42 KMFL 292101 AAA
TAFFLL
TAF AMD
KFLL 292101Z 2921/3018 13010KT P6SM VCSH FEW030 SCT250
     FM292200 14008KT P6SM VCTS SCT035CB BKN120
     FM300100 21003KT P6SM SCT030 SCT120 BKN250=



000
FTUS42 KMFL 292050 AAA
TAFPBI
TAF AMD
KPBI 292050Z 2921/3018 13010KT P6SM VCTS SCT025CB
      TEMPO 2921/2922 3SM TSRA
     FM292300 14010KT P6SM VCSH SCT030 BKN050
     FM300100 21004KT P6SM FEW030 SCT120 BKN250=



000
FTUS42 KMFL 291736
TAFPBI
TAF
KPBI 291736Z 2918/3018 13010KT P6SM VCSH SCT027
     FM292000 14010G15KT P6SM VCTS SCT030CB SCT250
     FM300100 21004KT P6SM FEW030 SCT120 BKN250=



000
FTUS42 KMFL 291736
TAFMIA
TAF
KMIA 291736Z 2918/3018 11008KT P6SM VCSH SCT030 BKN250
     FM291900 14010KT P6SM VCTS SCT025CB BKN250
     FM300100 21004KT P6SM SCT030 SCT120 BKN250=



000
FTUS42 KMFL 291736
TAFAPF
TAF
KAPF 291736Z 2918/3018 19009KT P6SM FEW030 SCT250
     FM300000 07004KT P6SM FEW060 SCT250=



000
FTUS42 KMFL 291736
TAFFLL
TAF
KFLL 291736Z 2918/3018 13011KT P6SM VCSH FEW030 SCT040 SCT250
     FM292000 14008KT P6SM VCTS SCT035CB BKN120
     FM300100 21003KT P6SM SCT030 SCT120 BKN250=



000
FTUS42 KMFL 291736
TAFPBI
TAF
KPBI 291736Z 2918/3018 13010KT P6SM VCSH SCT027
     FM292000 14010G15KT P6SM VCTS SCT030CB SCT250
     FM300100 21004KT P6SM FEW030 SCT120 BKN250=



000
FTUS42 KMFL 291736
TAFMIA
TAF
KMIA 291736Z 2918/3018 11008KT P6SM VCSH SCT030 BKN250
     FM291900 14010KT P6SM VCTS SCT025CB BKN250
     FM300100 21004KT P6SM SCT030 SCT120 BKN250=



000
FTUS42 KMFL 291736
TAFAPF
TAF
KAPF 291736Z 2918/3018 19009KT P6SM FEW030 SCT250
     FM300000 07004KT P6SM FEW060 SCT250=



000
FTUS42 KMFL 291736
TAFFLL
TAF
KFLL 291736Z 2918/3018 13011KT P6SM VCSH FEW030 SCT040 SCT250
     FM292000 14008KT P6SM VCTS SCT035CB BKN120
     FM300100 21003KT P6SM SCT030 SCT120 BKN250=



000
FTUS42 KMFL 291452 AAA
TAFPBI
TAF AMD
KPBI 291452Z 2915/3012 08005KT P6SM VCSH SCT027 BKN170 BKN250
     FM291900 14008KT P6SM VCTS SCT025CB BKN120
     FM300100 21004KT P6SM SCT030 SCT120 BKN250=



000
FTUS42 KMFL 291452 AAA
TAFMIA
TAF AMD
KMIA 291452Z 2915/3012 14006KT P6SM VCSH SCT027 BKN250
     FM291900 14008KT P6SM SCT025 BKN120
     FM300100 21004KT P6SM SCT030 SCT120 BKN250=



000
FTUS42 KMFL 291452 AAA
TAFAPF
TAF AMD
KAPF 291452Z 2915/3012 11005KT P6SM SCT025
     FM291700 23008KT P6SM SCT030 BKN250
     FM300000 07004KT P6SM FEW060 SCT250=



000
FTUS42 KMFL 291452 AAA
TAFAPF
TAF AMD
KAPF 291452Z 2915/3012 11005KT P6SM SCT025
     FM291700 23008KT P6SM SCT030 BKN250
     FM300000 07004KT P6SM FEW060 SCT250=



000
FTUS42 KMFL 291452 AAA
TAFMIA
TAF AMD
KMIA 291452Z 2915/3012 14006KT P6SM VCSH SCT027 BKN250
     FM291900 14008KT P6SM SCT025 BKN120
     FM300100 21004KT P6SM SCT030 SCT120 BKN250=



000
FTUS42 KMFL 291452 AAA
TAFFLL
TAF AMD
KFLL 291452Z 2915/3012 11005KT P6SM VCSH SCT025 BKN040 BKN250
     FM291900 14008KT P6SM VCTS SCT025CB BKN120
     FM300100 21003KT P6SM SCT030 SCT120 BKN250=



000
FTUS42 KMFL 291146
TAFAPF
TAF
KAPF 291146Z 2912/3012 08004KT P6SM FEW025
     FM291400 14006KT P6SM SCT025 BKN250
     FM291700 23008KT P6SM SCT030 BKN250
     FM300000 07004KT P6SM FEW060 SCT250=



000
FTUS42 KMFL 291146
TAFFLL
TAF
KFLL 291146Z 2912/3012 34003KT P6SM SCT023 SCT250
     FM291500 12008KT P6SM VCSH SCT025 BKN200
     FM291900 14008KT P6SM VCTS SCT025CB BKN120
     FM300100 21003KT P6SM SCT030 SCT120 BKN250=



000
FTUS42 KMFL 291146
TAFMIA
TAF
KMIA 291146Z 2912/3012 00000KT P6SM FEW025 SCT250
     FM291500 12008KT P6SM VCSH SCT025 BKN200
     FM291900 14008KT P6SM SCT025 BKN120
     FM300100 21004KT P6SM SCT030 SCT120 BKN250=



000
FTUS42 KMFL 291146
TAFPBI
TAF
KPBI 291146Z 2912/3012 00000KT P6SM VCSH SCT030 BKN040 BKN060
     FM291400 12008KT P6SM VCSH SCT025 BKN200
     FM291900 14008KT P6SM VCTS SCT025CB BKN120
     FM300100 21004KT P6SM SCT030 SCT120 BKN250=



000
FTUS42 KMFL 291146
TAFAPF
TAF
KAPF 291146Z 2912/3012 08004KT P6SM FEW025
     FM291400 14006KT P6SM SCT025 BKN250
     FM291700 23008KT P6SM SCT030 BKN250
     FM300000 07004KT P6SM FEW060 SCT250=



000
FTUS42 KMFL 291146
TAFMIA
TAF
KMIA 291146Z 2912/3012 00000KT P6SM FEW025 SCT250
     FM291500 12008KT P6SM VCSH SCT025 BKN200
     FM291900 14008KT P6SM SCT025 BKN120
     FM300100 21004KT P6SM SCT030 SCT120 BKN250=



000
FTUS42 KMFL 291146
TAFFLL
TAF
KFLL 291146Z 2912/3012 34003KT P6SM SCT023 SCT250
     FM291500 12008KT P6SM VCSH SCT025 BKN200
     FM291900 14008KT P6SM VCTS SCT025CB BKN120
     FM300100 21003KT P6SM SCT030 SCT120 BKN250=



000
FTUS42 KMFL 291146
TAFPBI
TAF
KPBI 291146Z 2912/3012 00000KT P6SM VCSH SCT030 BKN040 BKN060
     FM291400 12008KT P6SM VCSH SCT025 BKN200
     FM291900 14008KT P6SM VCTS SCT025CB BKN120
     FM300100 21004KT P6SM SCT030 SCT120 BKN250=



000
FTUS42 KMFL 290859 AAA
TAFFLL
TAF AMD
KFLL 290859Z 2909/3006 VRB03KT P6SM FEW025
     FM291500 12008KT P6SM VCSH SCT025 BKN200
     FM291900 14008KT P6SM VCTS SCT025CB BKN120
     FM300100 21003KT P6SM SCT030 SCT120 BKN250=



000
FTUS42 KMFL 290859 AAA
TAFFLL
TAF AMD
KFLL 290859Z 2909/3006 VRB03KT P6SM FEW025
     FM291500 12008KT P6SM VCSH SCT025 BKN200
     FM291900 14008KT P6SM VCTS SCT025CB BKN120
     FM300100 21003KT P6SM SCT030 SCT120 BKN250=



000
FTUS42 KMFL 290859 AAA
TAFPBI
TAF AMD
KPBI 290859Z 2909/3006 VRB03KT P6SM FEW025 SCT250
     FM291400 12008KT P6SM VCSH SCT025 BKN200
     FM291900 14008KT P6SM VCTS SCT025CB BKN120
     FM300100 21004KT P6SM SCT030 SCT120 BKN250=



000
FTUS42 KMFL 290859 AAA
TAFPBI
TAF AMD
KPBI 290859Z 2909/3006 VRB03KT P6SM FEW025 SCT250
     FM291400 12008KT P6SM VCSH SCT025 BKN200
     FM291900 14008KT P6SM VCTS SCT025CB BKN120
     FM300100 21004KT P6SM SCT030 SCT120 BKN250=



000
FTUS42 KMFL 290859 AAA
TAFMIA
TAF AMD
KMIA 290859Z 2909/3006 VRB03KT P6SM FEW025 SCT250
     FM291500 12008KT P6SM VCSH SCT025 BKN200
     FM291900 14008KT P6SM SCT025 BKN120
     FM300100 21004KT P6SM SCT030 SCT120 BKN250=



000
FTUS42 KMFL 290859 AAA
TAFMIA
TAF AMD
KMIA 290859Z 2909/3006 VRB03KT P6SM FEW025 SCT250
     FM291500 12008KT P6SM VCSH SCT025 BKN200
     FM291900 14008KT P6SM SCT025 BKN120
     FM300100 21004KT P6SM SCT030 SCT120 BKN250=



000
FTUS42 KMFL 290815 AAB
TAFAPF
TAF AMD
KAPF 290815Z 2908/3006 06004KT P6SM FEW002
     FM291400 14006KT P6SM SCT025 BKN250
     FM291700 23008KT P6SM SCT030 BKN250
     FM300000 07004KT P6SM FEW060 SCT250=



000
FTUS42 KMFL 290736 AAA
TAFAPF
TAF AMD
KAPF 290736Z 2908/3006 06005KT P6SM OVC002
      TEMPO 2909/2912 SCT004
     FM291200 06005KT P6SM FEW005
     FM291400 14006KT P6SM SCT025 BKN250
     FM291700 23008KT P6SM SCT030 BKN250
     FM300000 07004KT P6SM FEW060 SCT250=



000
FTUS42 KMFL 290736 AAA
TAFAPF
TAF AMD
KAPF 290736Z 2908/3006 06005KT P6SM OVC002
      TEMPO 2909/2912 SCT004
     FM291200 06005KT P6SM FEW005
     FM291400 14006KT P6SM SCT025 BKN250
     FM291700 23008KT P6SM SCT030 BKN250
     FM300000 07004KT P6SM FEW060 SCT250=



000
FTUS42 KMFL 290526
TAFAPF
TAF
KAPF 290526Z 2906/3006 06005KT P6SM FEW040 SCT090 BKN250
     FM291400 14006KT P6SM SCT025 BKN250
     FM291700 23008KT P6SM SCT030 BKN250
     FM300000 07004KT P6SM FEW060 SCT250=



000
FTUS42 KMFL 290526
TAFMIA
TAF
KMIA 290526Z 2906/3006 08003KT P6SM FEW025 BKN250
     FM291500 12008KT P6SM VCSH SCT025 BKN200
     FM291900 14008KT P6SM SCT025 BKN120
     FM300100 21004KT P6SM SCT030 SCT120 BKN250=



000
FTUS42 KMFL 290526
TAFPBI
TAF
KPBI 290526Z 2906/3006 09006KT P6SM FEW020 BKN250
     FM291400 12008KT P6SM VCSH SCT025 BKN200
     FM291900 14008KT P6SM VCTS SCT025CB BKN120
     FM300100 21004KT P6SM SCT030 SCT120 BKN250=



000
FTUS42 KMFL 290526
TAFFLL
TAF
KFLL 290526Z 2906/3006 09005KT P6SM BKN250
     FM291500 12008KT P6SM VCSH SCT025 BKN200
     FM291900 14008KT P6SM VCTS SCT025CB BKN120
     FM300100 21003KT P6SM SCT030 SCT120 BKN250=



000
FTUS42 KMFL 290526
TAFMIA
TAF
KMIA 290526Z 2906/3006 08003KT P6SM FEW025 BKN250
     FM291500 12008KT P6SM VCSH SCT025 BKN200
     FM291900 14008KT P6SM SCT025 BKN120
     FM300100 21004KT P6SM SCT030 SCT120 BKN250=



000
FTUS42 KMFL 290526
TAFAPF
TAF
KAPF 290526Z 2906/3006 06005KT P6SM FEW040 SCT090 BKN250
     FM291400 14006KT P6SM SCT025 BKN250
     FM291700 23008KT P6SM SCT030 BKN250
     FM300000 07004KT P6SM FEW060 SCT250=



000
FTUS42 KMFL 290526
TAFFLL
TAF
KFLL 290526Z 2906/3006 09005KT P6SM BKN250
     FM291500 12008KT P6SM VCSH SCT025 BKN200
     FM291900 14008KT P6SM VCTS SCT025CB BKN120
     FM300100 21003KT P6SM SCT030 SCT120 BKN250=



000
FTUS42 KMFL 290526
TAFPBI
TAF
KPBI 290526Z 2906/3006 09006KT P6SM FEW020 BKN250
     FM291400 12008KT P6SM VCSH SCT025 BKN200
     FM291900 14008KT P6SM VCTS SCT025CB BKN120
     FM300100 21004KT P6SM SCT030 SCT120 BKN250=



000
FTUS42 KMFL 290311 AAA
TAFPBI
TAF AMD
KPBI 290311Z 2903/2924 10004KT P6SM FEW020 BKN200
     FM291400 12008KT P6SM VCSH SCT025 BKN200
     FM291900 14008KT P6SM VCTS SCT025CB BKN120=



000
FTUS42 KMFL 290311 AAA
TAFPBI
TAF AMD
KPBI 290311Z 2903/2924 10004KT P6SM FEW020 BKN200
     FM291400 12008KT P6SM VCSH SCT025 BKN200
     FM291900 14008KT P6SM VCTS SCT025CB BKN120=



000
FTUS42 KMFL 290311 AAA
TAFFLL
TAF AMD
KFLL 290311Z 2903/2924 09007KT P6SM FEW025 BKN250
     FM291400 12008KT P6SM VCSH SCT025 BKN200
     FM291900 14008KT P6SM VCTS SCT025CB BKN120=



000
FTUS42 KMFL 290311 AAA
TAFMIA
TAF AMD
KMIA 290311Z 2903/2924 06005KT P6SM SCT025 BKN250
     FM291400 12008KT P6SM VCSH SCT025 BKN200
     FM291900 14008KT P6SM SCT025 BKN120=



000
FTUS42 KMFL 290311 AAA
TAFAPF
TAF AMD
KAPF 290311Z 2903/2924 07005KT P6SM BKN250
     FM291400 14006KT P6SM SCT025 BKN250
     FM291700 23008KT P6SM SCT030 BKN250=



000
FTUS42 KMFL 290311 AAA
TAFFLL
TAF AMD
KFLL 290311Z 2903/2924 09007KT P6SM FEW025 BKN250
     FM291400 12008KT P6SM VCSH SCT025 BKN200
     FM291900 14008KT P6SM VCTS SCT025CB BKN120=



000
FTUS42 KMFL 290311 AAA
TAFMIA
TAF AMD
KMIA 290311Z 2903/2924 06005KT P6SM SCT025 BKN250
     FM291400 12008KT P6SM VCSH SCT025 BKN200
     FM291900 14008KT P6SM SCT025 BKN120=



000
FTUS42 KMFL 290311 AAA
TAFAPF
TAF AMD
KAPF 290311Z 2903/2924 07005KT P6SM BKN250
     FM291400 14006KT P6SM SCT025 BKN250
     FM291700 23008KT P6SM SCT030 BKN250=



    US Dept of Commerce
    National Oceanic and Atmospheric Administration
    National Weather Service
    1325 East West Highway
    Silver Spring, MD 20910
    Page Author: NWS Internet Services Team
Disclaimer
Information Quality
Credits
Glossary
Privacy Policy
Freedom of Information Act (FOIA)
About Us
Career Opportunities